Time;durP1;ratioP1;P1;durP2;ratioP2;P2;SDS_P1;SDS_P2;PMS_P1;PMS_P2;Temp;Humidity;BMP_temperature;BMP_pressure;BME280_temperature;BME280_humidity;BME280_pressure;Samples;Min_cycle;Max_cycle;Signal;HPM_P1;HPM_P2
2023/01/01 00:02:03;;;;;;;143.73;55.67;;;;;;;-141.97;100.00;47795.88;5057995;28;20639;-84
2023/01/01 00:04:30;;;;;;;138.13;57.93;;;;;;;-141.97;100.00;47826.63;5057907;28;20180;-86
2023/01/01 00:06:56;;;;;;;196.63;81.00;;;;;;;-141.97;100.00;47861.22;5056385;28;20227;-87
2023/01/01 00:12:05;;;;;;;203.57;81.47;;;;;;;-141.97;100.00;47786.25;5056677;28;20161;-84
2023/01/01 00:14:31;;;;;;;220.73;88.80;;;;;;;-141.97;100.00;47780.47;5055876;28;20400;-84
2023/01/01 00:16:56;;;;;;;191.93;79.17;;;;;;;-141.97;100.00;47809.31;5055365;28;20165;-85
2023/01/01 00:19:21;;;;;;;172.90;68.30;;;;;;;-141.97;100.00;47753.56;5055747;28;20193;-85
2023/01/01 00:21:47;;;;;;;171.03;68.70;;;;;;;-141.97;100.00;47811.25;5054953;28;20307;-85
2023/01/01 00:24:12;;;;;;;165.30;67.70;;;;;;;-141.97;100.00;47790.09;5025731;28;20200;-84
2023/01/01 00:26:38;;;;;;;206.63;81.17;;;;;;;-141.97;100.00;47861.22;5033512;28;20582;-84
2023/01/01 00:29:04;;;;;;;211.00;81.87;;;;;;;-141.97;100.00;47793.94;5036994;28;20201;-86
2023/01/01 00:31:30;;;;;;;204.47;80.97;;;;;;;-141.97;100.00;47830.47;5016139;28;20722;-85
2023/01/01 00:33:56;;;;;;;203.73;80.90;;;;;;;-141.97;100.00;47832.38;5034552;28;20173;-84
2023/01/01 00:36:24;;;;;;;209.57;84.37;;;;;;;-141.97;100.00;47790.09;5033374;28;20832;-84
2023/01/01 00:38:49;;;;;;;233.30;97.97;;;;;;;-141.97;100.00;47830.47;5016228;28;20225;-83
2023/01/01 00:41:16;;;;;;;232.53;102.00;;;;;;;-141.97;100.00;47799.72;5034901;28;20419;-83
2023/01/01 00:43:42;;;;;;;220.70;88.97;;;;;;;-141.97;100.00;47843.91;5034856;28;20177;-84
2023/01/01 00:46:08;;;;;;;222.97;90.63;;;;;;;-141.97;100.00;47705.53;5016289;28;20463;-84
2023/01/01 00:48:33;;;;;;;200.40;80.53;;;;;;;-141.97;100.00;47770.88;5033385;28;20193;-84
2023/01/01 00:50:59;;;;;;;191.13;78.50;;;;;;;-141.97;100.00;47845.84;5034793;28;20416;-84
2023/01/01 00:53:25;;;;;;;182.27;76.80;;;;;;;-141.97;100.00;47836.22;5015115;28;20174;-85
2023/01/01 00:55:51;;;;;;;154.03;62.73;;;;;;;-141.97;100.00;47790.09;5034893;28;20657;-85
2023/01/01 00:58:17;;;;;;;151.00;58.93;;;;;;;-141.97;100.00;47811.25;5034237;28;20166;-84
2023/01/01 01:00:43;;;;;;;143.60;57.57;;;;;;;-141.97;100.00;47805.47;5037922;28;20213;-83
2023/01/01 01:03:26;;;;;;;134.10;52.13;;;;;;;-141.97;100.00;47820.84;5035035;28;20496;-84
2023/01/01 01:06:01;;;;;;;118.87;47.93;;;;;;;-141.97;100.00;47792.03;5017190;28;20224;-85
2023/01/01 01:08:28;;;;;;;117.20;46.37;;;;;;;-141.97;100.00;47782.41;5036937;28;20449;-84
2023/01/01 01:10:53;;;;;;;127.07;50.77;;;;;;;-141.97;100.00;47776.63;5039781;28;20433;-85
2023/01/01 01:13:19;;;;;;;114.70;46.53;;;;;;;-141.97;100.00;47778.56;5037893;28;20415;-85
2023/01/01 01:15:45;;;;;;;117.33;47.27;;;;;;;-141.97;100.00;47684.38;5036353;28;20169;-84
2023/01/01 01:18:10;;;;;;;125.60;47.77;;;;;;;-141.97;100.00;47818.94;5036193;28;20283;-84
2023/01/01 01:20:36;;;;;;;122.10;47.73;;;;;;;-141.97;100.00;47834.31;5034997;28;20185;-84
2023/01/01 01:23:01;;;;;;;114.50;44.57;;;;;;;-141.97;100.00;47790.09;5036374;28;20173;-85
2023/01/01 01:25:27;;;;;;;115.07;49.17;;;;;;;-141.97;100.00;47830.47;5037938;28;20594;-85
2023/01/01 01:27:52;;;;;;;130.13;50.97;;;;;;;-141.97;100.00;47790.09;5036069;28;20202;-83
2023/01/01 01:30:17;;;;;;;129.43;50.83;;;;;;;-141.97;100.00;47790.09;5057628;28;20170;-84
2023/01/01 01:32:43;;;;;;;123.57;48.73;;;;;;;-141.97;100.00;47763.19;5030368;28;20189;-84
2023/01/01 01:35:09;;;;;;;121.10;49.13;;;;;;;-141.97;100.00;47830.47;5040136;28;20178;-85
2023/01/01 01:37:34;;;;;;;113.40;47.77;;;;;;;-141.97;100.00;47815.09;5040773;28;20181;-84
2023/01/01 01:40:00;;;;;;;126.23;49.43;;;;;;;-141.97;100.00;47865.06;5025485;28;20178;-83
2023/01/01 01:42:25;;;;;;;112.70;46.53;;;;;;;-141.97;100.00;47853.53;5045601;28;20176;-82
2023/01/01 01:44:55;;;;;;;113.77;45.47;;;;;;;-141.97;100.00;47872.75;5048749;28;20171;-82
2023/01/01 01:47:49;;;;;;;110.00;45.07;;;;;;;-141.97;100.00;47803.56;5046481;28;20194;-84
2023/01/01 01:50:20;;;;;;;104.17;43.70;;;;;;;-141.97;100.00;47792.03;5020300;28;20421;-84
2023/01/01 01:52:57;;;;;;;108.03;44.83;;;;;;;-141.97;100.00;47767.03;5038135;28;20405;-85
2023/01/01 01:55:26;;;;;;;105.40;43.47;;;;;;;-141.97;100.00;47834.31;5035653;28;20425;-86
2023/01/01 01:57:52;;;;;;;110.57;42.93;;;;;;;-141.97;100.00;47799.72;5037122;28;20409;-84
2023/01/01 02:00:18;;;;;;;103.43;43.77;;;;;;;-141.97;100.00;47849.69;5015837;28;20977;-84
2023/01/01 02:02:56;;;;;;;112.33;45.83;;;;;;;-141.97;100.00;47822.78;5034698;28;20154;-85
2023/01/01 02:05:22;;;;;;;126.90;51.07;;;;;;;-141.97;100.00;47805.47;5038841;28;20404;-83
2023/01/01 02:07:49;;;;;;;115.27;47.03;;;;;;;-141.97;100.00;47897.75;5035781;28;20460;-82
2023/01/01 02:10:14;;;;;;;132.20;53.00;;;;;;;-141.97;100.00;47830.47;5041934;28;20403;-85
2023/01/01 02:12:40;;;;;;;133.83;53.10;;;;;;;-141.97;100.00;47813.16;5040764;28;20405;-83
2023/01/01 02:15:06;;;;;;;147.93;60.77;;;;;;;-141.97;100.00;47755.50;5035595;28;20168;-83
2023/01/01 02:18:12;;;;;;;141.63;56.40;;;;;;;-141.97;100.00;47788.19;5034484;28;20163;-86
2023/01/01 02:21:02;;;;;;;156.23;60.77;;;;;;;-141.97;100.00;47822.78;4991453;28;20433;-84
2023/01/01 02:23:35;;;;;;;173.93;67.20;;;;;;;-141.97;100.00;47795.88;4991246;28;20423;-84
2023/01/01 02:26:16;;;;;;;145.27;56.53;;;;;;;-141.97;100.00;47795.88;4991111;28;20922;-84
2023/01/01 02:28:56;;;;;;;122.13;49.80;;;;;;;-141.97;100.00;47782.41;4991051;28;20451;-84
2023/01/01 02:31:33;;;;;;;128.80;51.67;;;;;;;-141.97;100.00;47826.63;4974841;28;20426;-83
2023/01/01 02:34:02;;;;;;;147.23;55.67;;;;;;;-141.97;100.00;47738.19;4990179;28;20510;-86
2023/01/01 02:36:31;;;;;;;191.80;65.30;;;;;;;-141.97;100.00;47784.34;4990151;28;20414;-84
2023/01/01 02:38:59;;;;;;;186.17;67.33;;;;;;;-141.97;100.00;47815.09;4974589;28;20648;-85
2023/01/01 02:41:38;;;;;;;171.97;63.20;;;;;;;-141.97;100.00;47799.72;4990359;28;20403;-85
2023/01/01 02:44:04;;;;;;;135.30;53.17;;;;;;;-141.97;100.00;47768.94;4990116;28;20422;-85
2023/01/01 02:46:32;;;;;;;133.00;51.20;;;;;;;-141.97;100.00;47826.63;4991317;28;20422;-85
2023/01/01 02:48:57;;;;;;;137.87;52.77;;;;;;;-141.97;100.00;47793.94;4990763;28;20226;-85
2023/01/01 02:51:44;;;;;;;136.30;51.63;;;;;;;-141.97;100.00;47815.09;4990557;28;20418;-84
2023/01/01 02:54:12;;;;;;;133.23;52.30;;;;;;;-141.97;100.00;47811.25;4990343;28;20178;-84
2023/01/01 02:56:47;;;;;;;130.60;52.20;;;;;;;-141.97;100.00;47838.16;5021842;28;20432;-86
2023/01/01 03:02:53;;;;;;;128.00;51.83;;;;;;;-141.97;100.00;47809.31;5033857;28;20403;-86
2023/01/01 03:05:36;;;;;;;124.40;51.73;;;;;;;-141.97;100.00;47786.25;5032449;28;20399;-84
2023/01/01 03:08:37;;;;;;;127.33;51.07;;;;;;;-141.97;100.00;47820.84;5031553;28;20452;-85
2023/01/01 03:11:10;;;;;;;120.97;47.70;;;;;;;-141.97;100.00;47857.38;4990073;28;20426;-84
2023/01/01 03:13:58;;;;;;;124.80;48.07;;;;;;;-141.97;100.00;47847.75;4989997;28;20445;-85
2023/01/01 03:16:35;;;;;;;120.50;48.83;;;;;;;-141.97;100.00;47784.34;4994703;28;20427;-86
2023/01/01 03:19:10;;;;;;;132.47;52.00;;;;;;;-141.97;100.00;47792.03;4992109;28;20402;-83
2023/01/01 03:21:53;;;;;;;125.07;47.00;;;;;;;-141.97;100.00;47818.94;4990848;28;20425;-84
2023/01/01 03:24:31;;;;;;;117.83;48.70;;;;;;;-141.97;100.00;47826.63;4990125;28;20423;-84
2023/01/01 03:27:01;;;;;;;130.40;49.83;;;;;;;-141.97;100.00;47822.78;4989786;28;20898;-84
2023/01/01 03:29:32;;;;;;;119.23;47.87;;;;;;;-141.97;100.00;47836.22;4990208;28;20425;-84
2023/01/01 03:32:00;;;;;;;112.73;47.63;;;;;;;-141.97;100.00;47807.41;4990457;28;20438;-84
2023/01/01 03:34:33;;;;;;;119.17;49.47;;;;;;;-141.97;100.00;47853.53;4992420;28;20502;-84
2023/01/01 03:37:03;;;;;;;115.60;46.20;;;;;;;-141.97;100.00;47903.50;4994714;28;20488;-82
2023/01/01 03:39:35;;;;;;;113.63;45.07;;;;;;;-141.97;100.00;47738.19;5003289;28;20536;-84
2023/01/01 03:42:13;;;;;;;114.53;45.83;;;;;;;-141.97;100.00;47782.41;4993753;28;20461;-84
2023/01/01 03:44:46;;;;;;;124.03;49.17;;;;;;;-141.97;100.00;47826.63;4975318;28;20426;-84
2023/01/01 03:47:12;;;;;;;121.63;50.10;;;;;;;-141.97;100.00;47795.88;4989819;28;20464;-84
2023/01/01 03:49:38;;;;;;;124.47;50.13;;;;;;;-141.97;100.00;47818.94;5033870;28;20950;-84
2023/01/01 03:52:51;;;;;;;123.40;46.20;;;;;;;-141.97;100.00;47799.72;5035783;28;20496;-84
2023/01/01 03:55:35;;;;;;;112.50;44.93;;;;;;;-141.97;100.00;47784.34;4999743;28;20175;-84
2023/01/01 03:58:12;;;;;;;111.87;44.53;;;;;;;-141.97;100.00;47778.56;5013629;28;20413;-82
2023/01/01 04:00:46;;;;;;;112.37;45.53;;;;;;;-141.97;100.00;47784.34;5010976;28;20466;-84
2023/01/01 04:03:22;;;;;;;122.17;45.97;;;;;;;-141.97;100.00;47772.78;4993648;28;20442;-85
2023/01/01 04:05:49;;;;;;;108.33;44.80;;;;;;;-141.97;100.00;47807.41;4992988;28;20426;-84
2023/01/01 04:08:15;;;;;;;118.67;46.17;;;;;;;-141.97;100.00;47882.38;4976430;28;20990;-85
2023/01/01 04:10:45;;;;;;;111.00;44.77;;;;;;;-141.97;100.00;47788.19;4992899;28;20413;-84
2023/01/01 04:13:10;;;;;;;121.47;48.63;;;;;;;-141.97;100.00;47832.38;4993057;28;20187;-85
2023/01/01 04:15:36;;;;;;;113.53;45.93;;;;;;;-141.97;100.00;47749.72;4993740;28;20465;-84
2023/01/01 04:18:02;;;;;;;111.17;46.03;;;;;;;-141.97;100.00;47842.00;4993881;28;20698;-84
2023/01/01 04:20:27;;;;;;;113.23;46.60;;;;;;;-141.97;100.00;47815.09;4994218;28;20254;-84
2023/01/01 04:22:57;;;;;;;113.50;47.40;;;;;;;-141.97;100.00;47753.56;4977421;28;20703;-84
2023/01/01 04:25:22;;;;;;;114.77;46.80;;;;;;;-141.97;100.00;47780.47;5003531;28;20251;-84
2023/01/01 04:27:47;;;;;;;114.23;46.83;;;;;;;-141.97;100.00;47799.72;5035754;28;20449;-86
2023/01/01 04:30:14;;;;;;;116.33;46.67;;;;;;;-141.97;100.00;47818.94;5034796;28;20223;-85
2023/01/01 04:32:40;;;;;;;123.73;50.03;;;;;;;-141.97;100.00;47826.63;5034633;28;20166;-84
2023/01/01 04:35:07;;;;;;;167.17;64.17;;;;;;;-141.97;100.00;47767.03;5034323;28;20786;-84
2023/01/01 04:37:35;;;;;;;198.23;75.43;;;;;;;-141.97;100.00;47747.81;5016962;28;20166;-83
2023/01/01 04:40:01;;;;;;;227.33;89.73;;;;;;;-141.97;100.00;47782.41;5035007;28;20449;-84
2023/01/01 04:42:26;;;;;;;176.23;69.07;;;;;;;-141.97;100.00;47815.09;5017071;28;20886;-84
2023/01/01 04:44:51;;;;;;;138.93;55.27;;;;;;;-141.97;100.00;47826.63;5016849;28;20180;-84
2023/01/01 04:47:17;;;;;;;174.90;71.97;;;;;;;-141.97;100.00;47838.16;5034503;28;20185;-84
2023/01/01 04:49:42;;;;;;;246.00;103.00;;;;;;;-141.97;100.00;47755.50;5034299;28;20216;-85
2023/01/01 04:52:07;;;;;;;233.47;95.57;;;;;;;-141.97;100.00;47786.25;5033035;28;20613;-84
2023/01/01 04:54:33;;;;;;;263.73;107.97;;;;;;;-141.97;100.00;47776.63;5033587;28;20653;-84
2023/01/01 04:56:58;;;;;;;270.47;104.47;;;;;;;-141.97;100.00;47784.34;5034008;28;20231;-84
2023/01/01 04:59:24;;;;;;;367.20;148.13;;;;;;;-141.97;100.00;47809.31;5033746;28;20212;-84
2023/01/01 05:01:49;;;;;;;294.80;118.70;;;;;;;-141.97;100.00;47820.84;5033992;28;20652;-84
2023/01/01 05:04:16;;;;;;;224.23;94.63;;;;;;;-141.97;100.00;47820.84;5034049;28;20162;-84
2023/01/01 05:06:42;;;;;;;191.67;81.57;;;;;;;-141.97;100.00;47842.00;5015331;28;20197;-84
2023/01/01 05:09:09;;;;;;;203.43;80.53;;;;;;;-141.97;100.00;47826.63;5034213;28;20452;-85
2023/01/01 05:11:34;;;;;;;175.97;69.40;;;;;;;-141.97;100.00;47743.97;5016101;28;20184;-84
2023/01/01 05:14:01;;;;;;;173.70;70.30;;;;;;;-141.97;100.00;47799.72;5034197;28;20499;-84
2023/01/01 05:16:29;;;;;;;177.97;70.13;;;;;;;-141.97;100.00;47745.88;5034309;28;20173;-84
2023/01/01 05:18:55;;;;;;;178.50;71.93;;;;;;;-141.97;100.00;47784.34;5015481;28;20796;-84
2023/01/01 05:21:23;;;;;;;195.97;78.87;;;;;;;-141.97;100.00;47817.00;5033818;28;20405;-84
2023/01/01 05:23:52;;;;;;;197.30;80.57;;;;;;;-141.97;100.00;47803.56;5033299;28;20261;-85
2023/01/01 05:26:20;;;;;;;187.93;75.63;;;;;;;-141.97;100.00;47753.56;5016037;28;20405;-86
2023/01/01 05:28:46;;;;;;;210.67;85.27;;;;;;;-141.97;100.00;47743.97;5015825;28;20453;-84
2023/01/01 05:31:14;;;;;;;379.30;156.83;;;;;;;-141.97;100.00;47795.88;5033592;28;20408;-84
2023/01/01 05:33:40;;;;;;;395.60;169.70;;;;;;;-141.97;100.00;47790.09;5033437;28;20889;-84
2023/01/01 05:36:08;;;;;;;397.50;174.17;;;;;;;-141.97;100.00;47838.16;5033452;28;20413;-84
2023/01/01 05:38:33;;;;;;;302.17;121.43;;;;;;;-141.97;100.00;47840.06;5033530;28;20464;-84
2023/01/01 05:41:05;;;;;;;157.97;61.77;;;;;;;-141.97;100.00;47811.25;5033380;28;20416;-84
2023/01/01 05:43:30;;;;;;;155.80;61.73;;;;;;;-141.97;100.00;47790.09;5033276;28;20158;-84
2023/01/01 05:46:01;;;;;;;146.93;57.70;;;;;;;-141.97;100.00;47813.16;5032534;28;20912;-84
2023/01/01 05:48:26;;;;;;;156.23;57.53;;;;;;;-141.97;100.00;47768.94;5032485;28;20186;-84
2023/01/01 05:50:51;;;;;;;154.00;58.10;;;;;;;-141.97;100.00;47811.25;5032388;28;20835;-84
2023/01/01 05:53:17;;;;;;;154.53;59.37;;;;;;;-141.97;100.00;47776.63;5032091;28;20162;-84
2023/01/01 05:55:42;;;;;;;166.53;60.50;;;;;;;-141.97;100.00;47842.00;5032470;28;20163;-84
2023/01/01 05:58:07;;;;;;;138.13;56.23;;;;;;;-141.97;100.00;47757.41;5031989;28;20245;-84
2023/01/01 06:00:33;;;;;;;210.53;79.87;;;;;;;-141.97;100.00;47840.06;5032479;28;20173;-84
2023/01/01 06:02:58;;;;;;;235.13;98.37;;;;;;;-141.97;100.00;47822.78;5032095;28;20246;-84
2023/01/01 06:05:24;;;;;;;210.00;83.40;;;;;;;-141.97;100.00;47793.94;5032271;28;20201;-84
2023/01/01 06:07:49;;;;;;;248.87;99.53;;;;;;;-141.97;100.00;47740.13;5013763;28;20197;-85
2023/01/01 06:10:15;;;;;;;230.30;81.70;;;;;;;-141.97;100.00;47830.47;5032444;28;20614;-84
2023/01/01 06:12:40;;;;;;;166.53;61.33;;;;;;;-141.97;100.00;47776.63;5032746;28;20165;-84
2023/01/01 06:15:06;;;;;;;149.17;57.67;;;;;;;-141.97;100.00;47799.72;5027587;28;20162;-84
2023/01/01 06:17:33;;;;;;;138.93;54.33;;;;;;;-141.97;100.00;47824.69;5039367;28;20220;-83
2023/01/01 06:19:58;;;;;;;133.67;52.33;;;;;;;-141.97;100.00;47807.41;5036607;28;20415;-85
2023/01/01 06:22:23;;;;;;;133.13;50.33;;;;;;;-141.97;100.00;47836.22;5035726;28;20405;-84
2023/01/01 06:24:49;;;;;;;120.10;50.40;;;;;;;-141.97;100.00;47726.66;5044810;28;20188;-85
2023/01/01 06:27:14;;;;;;;123.37;49.30;;;;;;;-141.97;100.00;47813.16;5056966;28;20182;-84
2023/01/01 06:29:39;;;;;;;119.60;47.73;;;;;;;-141.97;100.00;47818.94;5043462;28;20173;-85
2023/01/01 06:32:05;;;;;;;112.83;46.53;;;;;;;-141.97;100.00;47790.09;5018276;28;20166;-85
2023/01/01 06:34:30;;;;;;;108.67;44.30;;;;;;;-141.97;100.00;47815.09;5036476;28;20190;-85
2023/01/01 06:36:55;;;;;;;124.23;48.27;;;;;;;-141.97;100.00;47836.22;5045408;28;20219;-85
2023/01/01 06:39:21;;;;;;;124.97;50.60;;;;;;;-141.97;100.00;47803.56;5046792;28;20221;-84
2023/01/01 06:41:46;;;;;;;178.13;72.90;;;;;;;-141.97;92.59;47857.38;5016846;28;20692;-84
2023/01/01 06:44:12;;;;;;;192.10;84.00;;;;;;;-141.97;86.72;47784.34;5032253;28;20670;-85
2023/01/01 06:46:37;;;;;;;165.03;74.20;;;;;;;-141.97;85.71;47776.63;5014893;28;20165;-85
2023/01/01 06:49:09;;;;;;;202.97;89.20;;;;;;;-141.97;85.67;47855.44;5035087;28;20234;-84
2023/01/01 06:51:39;;;;;;;317.23;134.97;;;;;;;-141.97;85.76;47857.38;5033976;28;20166;-84
2023/01/01 06:54:06;;;;;;;306.23;128.63;;;;;;;-141.97;85.53;47780.47;5022975;28;20425;-83
2023/01/01 06:56:31;;;;;;;386.80;167.93;;;;;;;-141.97;84.43;47863.13;5041920;28;20404;-84
2023/01/01 06:58:57;;;;;;;518.53;278.50;;;;;;;-141.97;83.74;47815.09;5046441;28;20431;-83
2023/01/01 07:01:25;;;;;;;518.20;274.80;;;;;;;-141.97;83.35;47784.34;5024997;28;20237;-84
2023/01/01 07:04:12;;;;;;;466.47;226.90;;;;;;;-141.97;82.62;47793.94;5026043;28;20432;-83
2023/01/01 07:06:38;;;;;;;339.67;142.07;;;;;;;-141.97;73.76;47951.56;5022538;28;20984;-83
2023/01/01 07:09:05;;;;;;;237.87;104.77;;;;;;;-141.97;64.37;47822.78;5034142;28;20516;-83
2023/01/01 07:11:31;;;;;;;156.60;74.67;;;;;;;-141.97;60.35;47836.22;5033522;28;20192;-83
2023/01/01 07:13:56;;;;;;;196.53;95.40;;;;;;;-141.97;57.08;47840.06;5033122;28;20196;-82
2023/01/01 07:16:22;;;;;;;169.73;85.97;;;;;;;-141.97;55.20;47792.03;5031741;28;20163;-83
2023/01/01 07:18:49;;;;;;;149.90;70.97;;;;;;;-141.97;54.28;47795.88;5032379;28;20197;-82
2023/01/01 07:21:31;;;;;;;151.67;69.53;;;;;;;-141.97;52.40;47817.00;5037938;28;20165;-82
2023/01/01 07:24:02;;;;;;;180.33;88.07;;;;;;;-141.97;51.63;47788.19;5019434;28;20629;-83
2023/01/01 07:26:29;;;;;;;127.37;66.13;;;;;;;-141.97;49.64;47745.88;5019635;28;20170;-83
2023/01/01 07:28:55;;;;;;;131.10;71.10;;;;;;;-141.97;48.53;47803.56;5037096;28;20194;-82
2023/01/01 07:31:21;;;;;;;137.30;74.83;;;;;;;-141.97;49.71;47865.06;5038054;28;20173;-82
2023/01/01 07:33:46;;;;;;;105.30;50.50;;;;;;;-141.97;54.51;47745.88;5037227;28;20162;-83
2023/01/01 07:36:12;;;;;;;84.33;43.83;;;;;;;-141.97;58.06;47792.03;5047078;28;20165;-83
2023/01/01 07:38:37;;;;;;;85.83;44.07;;;;;;;-141.97;62.23;47803.56;5035574;28;20221;-83
2023/01/01 07:41:03;;;;;;;84.57;41.83;;;;;;;-141.97;64.96;47678.63;5036398;28;20213;-82
2023/01/01 07:43:28;;;;;;;85.10;43.93;;;;;;;-141.97;67.52;47805.47;5036800;28;20640;-83
2023/01/01 07:45:54;;;;;;;86.97;43.50;;;;;;;-141.97;67.61;47799.72;5042774;28;20649;-84
2023/01/01 07:48:19;;;;;;;80.63;39.70;;;;;;;-141.97;67.75;47738.19;5036657;28;20178;-84
2023/01/01 07:50:45;;;;;;;132.47;59.07;;;;;;;-141.97;68.19;47826.63;5036315;28;20557;-83
2023/01/01 07:53:10;;;;;;;125.43;57.30;;;;;;;-141.97;68.25;47788.19;5035507;28;20474;-83
2023/01/01 07:55:36;;;;;;;283.50;131.83;;;;;;;-141.97;67.82;47838.16;5036949;28;20273;-83
2023/01/01 07:58:01;;;;;;;252.83;117.07;;;;;;;-141.97;68.15;47767.03;5037450;28;20165;-83
2023/01/01 08:00:28;;;;;;;170.67;82.57;;;;;;;-141.97;68.48;47818.94;5039207;28;20168;-82
2023/01/01 08:02:53;;;;;;;136.43;65.43;;;;;;;-141.97;68.23;47817.00;5036116;28;20247;-84
2023/01/01 08:05:19;;;;;;;132.07;62.20;;;;;;;-141.97;68.65;47803.56;5035253;28;20206;-83
2023/01/01 08:07:48;;;;;;;124.60;59.23;;;;;;;-141.97;68.44;47805.47;5035248;28;20201;-82
2023/01/01 08:10:15;;;;;;;123.97;61.43;;;;;;;-141.97;68.86;47792.03;5035047;28;20538;-82
2023/01/01 08:12:41;;;;;;;90.13;44.80;;;;;;;-141.97;68.36;47811.25;5034731;28;20162;-82
2023/01/01 08:15:07;;;;;;;95.77;51.30;;;;;;;-141.97;68.12;47761.25;5035241;28;20154;-82
2023/01/01 08:17:33;;;;;;;69.13;35.43;;;;;;;-141.97;68.57;47759.34;5034866;28;20235;-82
2023/01/01 08:19:58;;;;;;;77.80;40.43;;;;;;;-141.97;67.98;47899.66;5035078;28;20162;-83
2023/01/01 08:22:24;;;;;;;71.83;35.93;;;;;;;-141.97;67.45;47847.75;5016711;28;20178;-83
2023/01/01 08:24:49;;;;;;;106.63;50.17;;;;;;;-141.97;66.74;47793.94;5034376;28;20166;-83
2023/01/01 08:27:16;;;;;;;115.87;51.00;;;;;;;-141.97;66.67;47799.72;5016691;28;20271;-83
2023/01/01 08:29:42;;;;;;;101.80;47.30;;;;;;;-141.97;67.65;47822.78;5033182;28;20174;-82
2023/01/01 08:32:07;;;;;;;53.80;27.93;;;;;;;-141.97;68.21;47813.16;5033648;28;20166;-82
2023/01/01 08:34:33;;;;;;;69.60;36.20;;;;;;;-141.97;68.10;47828.53;5033974;28;20170;-82
2023/01/01 08:37:01;;;;;;;56.23;29.50;;;;;;;-141.97;66.11;47811.25;5033486;28;20162;-82
2023/01/01 08:39:26;;;;;;;57.63;28.87;;;;;;;-141.97;65.93;47834.31;5033427;28;20233;-82
2023/01/01 08:41:52;;;;;;;45.77;22.30;;;;;;;-141.97;66.31;47807.41;5033655;28;20549;-83
2023/01/01 08:44:18;;;;;;;49.73;25.00;;;;;;;-141.97;66.55;47799.72;5016630;28;20260;-83
2023/01/01 08:46:43;;;;;;;55.33;28.37;;;;;;;-141.97;64.78;47763.19;5034550;28;20190;-84
2023/01/01 08:49:08;;;;;;;49.80;25.50;;;;;;;-141.97;64.49;47876.59;5018027;28;20296;-83
2023/01/01 08:51:34;;;;;;;50.40;27.17;;;;;;;-141.97;63.41;47815.09;5042278;28;20197;-86
2023/01/01 08:53:59;;;;;;;50.07;27.27;;;;;;;-141.97;62.23;47665.16;5055103;28;20194;-86
2023/01/01 08:56:25;;;;;;;47.43;25.03;;;;;;;-141.97;61.39;47745.88;5056920;28;20152;-87
2023/01/01 08:58:50;;;;;;;47.07;25.27;;;;;;;-141.97;62.55;47820.84;5020623;28;20715;-84
2023/01/01 09:01:16;;;;;;;41.40;21.97;;;;;;;-141.97;61.76;47815.09;5033473;28;20182;-79
2023/01/01 09:03:41;;;;;;;39.50;21.27;;;;;;;-141.97;61.57;47770.88;5034271;28;20162;-81
2023/01/01 09:06:07;;;;;;;44.07;22.37;;;;;;;-141.97;60.70;47765.09;5032676;28;20166;-79
2023/01/01 09:08:33;;;;;;;38.07;20.57;;;;;;;-141.97;60.53;47767.03;5032211;28;20197;-81
2023/01/01 09:11:02;;;;;;;36.07;20.40;;;;;;;-141.97;59.02;47761.25;5032396;28;20158;-80
2023/01/01 09:13:28;;;;;;;39.57;21.37;;;;;;;-141.97;57.77;47792.03;5032347;28;20162;-79
2023/01/01 09:15:53;;;;;;;37.50;22.47;;;;;;;-141.97;57.37;47807.41;5032233;28;20165;-79
2023/01/01 09:18:19;;;;;;;37.43;21.90;;;;;;;-141.97;56.01;47759.34;5032816;28;20551;-79
2023/01/01 09:20:44;;;;;;;53.33;30.93;;;;;;;-141.97;55.74;47826.63;5033306;28;20241;-80
2023/01/01 09:23:10;;;;;;;66.80;36.83;;;;;;;-141.97;55.30;47782.41;5032433;28;20174;-80
2023/01/01 09:25:36;;;;;;;39.73;23.50;;;;;;;-141.97;54.71;47763.19;5049874;28;20178;-80
2023/01/01 09:28:05;;;;;;;48.63;28.87;;;;;;;-141.97;54.34;47770.88;5052624;28;20185;-80
2023/01/01 09:30:30;;;;;;;48.80;25.57;;;;;;;-141.97;53.94;47761.25;5052633;28;20597;-80
2023/01/01 09:32:55;;;;;;;62.73;35.83;;;;;;;-141.97;54.26;47772.78;5053117;28;20265;-79
2023/01/01 09:35:21;;;;;;;60.73;34.60;;;;;;;-141.97;53.94;47795.88;5052491;28;20542;-80
2023/01/01 09:37:47;;;;;;;41.03;23.50;;;;;;;-141.97;54.18;47799.72;5052491;28;20257;-79
2023/01/01 09:40:33;;;;;;;34.37;20.97;;;;;;;-141.97;55.06;47799.72;5052603;28;20176;-81
2023/01/01 09:43:35;;;;;;;38.27;21.37;;;;;;;-141.97;54.40;47778.56;5052154;28;20244;-80
2023/01/01 09:46:05;;;;;;;44.00;25.10;;;;;;;-141.97;53.57;47792.03;4971335;28;20191;-80
2023/01/01 09:48:31;;;;;;;46.23;24.63;;;;;;;-141.97;52.61;47890.06;4971877;28;20228;-79
2023/01/01 09:50:59;;;;;;;52.73;30.03;;;;;;;-141.97;52.02;47799.72;4971029;28;20196;-79
2023/01/01 09:53:33;;;;;;;66.00;37.57;;;;;;;-141.97;51.76;47749.72;4952059;29;20188;-79
2023/01/01 09:56:01;;;;;;;67.90;39.27;;;;;;;-141.97;52.16;47776.63;4951147;29;20730;-80
2023/01/01 09:58:33;;;;;;;66.07;38.20;;;;;;;-141.97;51.28;47738.19;4951547;29;20161;-79
2023/01/01 10:01:25;;;;;;;76.37;42.73;;;;;;;-141.97;50.91;47780.47;4950899;29;20188;-80
2023/01/01 10:04:00;;;;;;;64.67;37.40;;;;;;;-141.97;50.14;47763.19;4951220;29;20200;-79
2023/01/01 10:06:32;;;;;;;78.27;44.20;;;;;;;-141.97;50.57;47738.19;4951068;29;20247;-81
2023/01/01 10:09:03;;;;;;;56.37;33.50;;;;;;;-141.97;49.67;47792.03;4950672;29;20204;-80
2023/01/01 10:11:29;;;;;;;47.07;27.93;;;;;;;-141.97;49.21;47747.81;4950594;29;20437;-80
2023/01/01 10:13:58;;;;;;;51.97;28.83;;;;;;;-141.97;49.42;47765.09;4951174;29;20649;-80
2023/01/01 10:16:35;;;;;;;45.03;26.33;;;;;;;-141.97;49.10;47768.94;4951955;29;20283;-80
2023/01/01 10:19:11;;;;;;;46.50;26.40;;;;;;;-141.97;48.78;47765.09;4953956;29;20236;-79
2023/01/01 10:21:42;;;;;;;37.47;23.43;;;;;;;-141.97;48.30;47763.19;4952816;28;20287;-79
2023/01/01 10:24:35;;;;;;;38.00;23.50;;;;;;;-141.97;48.79;47768.94;5012329;28;20713;-79
2023/01/01 10:27:03;;;;;;;47.73;29.03;;;;;;;-141.97;48.39;47763.19;5012853;28;20178;-80
2023/01/01 10:29:43;;;;;;;41.10;23.67;;;;;;;-141.97;48.09;47767.03;5016576;28;20170;-81
2023/01/01 10:32:30;;;;;;;37.67;22.90;;;;;;;-141.97;47.78;47742.03;5018952;28;20174;-80
2023/01/01 10:34:56;;;;;;;39.80;24.17;;;;;;;-141.97;48.38;47738.19;5034943;28;20154;-82
2023/01/01 10:37:22;;;;;;;40.90;24.13;;;;;;;-141.97;48.54;47730.50;5032682;28;20252;-82
2023/01/01 10:39:49;;;;;;;39.87;22.90;;;;;;;-141.97;48.61;47742.03;5033124;28;20215;-79
2023/01/01 10:42:15;;;;;;;43.37;27.13;;;;;;;-141.97;49.13;47759.34;5035135;28;20253;-81
2023/01/01 10:44:41;;;;;;;43.37;24.67;;;;;;;-141.97;48.76;47711.28;5031881;28;20188;-80
2023/01/01 10:47:24;;;;;;;47.80;26.03;;;;;;;-141.97;48.64;47732.44;5031324;28;20170;-81
2023/01/01 10:50:06;;;;;;;38.40;23.10;;;;;;;-141.97;48.35;47734.34;5031549;28;20635;-81
2023/01/01 10:52:38;;;;;;;39.30;22.63;;;;;;;-141.97;48.14;47726.66;5031350;28;20240;-81
2023/01/01 10:55:05;;;;;;;41.50;25.43;;;;;;;-141.97;48.39;47763.19;5033086;28;20239;-81
2023/01/01 10:57:39;;;;;;;43.50;24.77;;;;;;;-141.97;47.94;47738.19;5035390;28;20692;-80
2023/01/01 11:00:11;;;;;;;39.77;24.90;;;;;;;-141.97;47.80;47728.59;5049341;28;20173;-80
2023/01/01 11:02:36;;;;;;;40.03;24.40;;;;;;;-141.97;47.42;47751.66;5056294;28;20234;-81
2023/01/01 11:05:17;;;;;;;39.10;24.53;;;;;;;-141.97;47.54;47797.78;5038136;28;20169;-79
2023/01/01 11:07:43;;;;;;;40.20;24.00;;;;;;;-141.97;47.21;47761.25;5055566;28;20565;-82